sensor_id;sensor_type;location;lat;lon;timestamp;pressure;altitude;pressure_sealevel;temperature;humidity
21086;BME280;72320;50.082;20.000;2024-02-14T00:00:10;99561.24;;;5.54;57.02
21086;BME280;72320;50.082;20.000;2024-02-14T00:02:47;99561.43;;;5.49;57.04
21086;BME280;72320;50.082;20.000;2024-02-14T00:05:17;99566.99;;;5.45;57.10
21086;BME280;72320;50.082;20.000;2024-02-14T00:07:47;99563.15;;;5.44;57.12
21086;BME280;72320;50.082;20.000;2024-02-14T00:10:15;99563.70;;;5.46;57.30
21086;BME280;72320;50.082;20.000;2024-02-14T00:12:41;99564.26;;;5.50;57.29
21086;BME280;72320;50.082;20.000;2024-02-14T00:15:09;99575.21;;;5.55;57.42
21086;BME280;72320;50.082;20.000;2024-02-14T00:17:36;99573.60;;;5.58;57.53
21086;BME280;72320;50.082;20.000;2024-02-14T00:20:04;99570.31;;;5.61;57.38
21086;BME280;72320;50.082;20.000;2024-02-14T00:22:33;99576.91;;;5.59;57.50
21086;BME280;72320;50.082;20.000;2024-02-14T00:25:00;99578.31;;;5.58;57.45
21086;BME280;72320;50.082;20.000;2024-02-14T00:27:28;99583.83;;;5.57;57.54
21086;BME280;72320;50.082;20.000;2024-02-14T00:29:56;99589.37;;;5.60;57.45
21086;BME280;72320;50.082;20.000;2024-02-14T00:32:25;99590.29;;;5.59;57.47
21086;BME280;72320;50.082;20.000;2024-02-14T00:34:52;99590.49;;;5.57;57.50
21086;BME280;72320;50.082;20.000;2024-02-14T00:37:19;99593.34;;;5.52;57.67
21086;BME280;72320;50.082;20.000;2024-02-14T00:39:48;99592.93;;;5.46;57.84
21086;BME280;72320;50.082;20.000;2024-02-14T00:42:17;99598.20;;;5.40;57.99
21086;BME280;72320;50.082;20.000;2024-02-14T00:44:44;99597.16;;;5.38;58.28
21086;BME280;72320;50.082;20.000;2024-02-14T00:47:10;99599.27;;;5.36;58.42
21086;BME280;72320;50.082;20.000;2024-02-14T00:49:37;99599.91;;;5.27;58.65
21086;BME280;72320;50.082;20.000;2024-02-14T00:52:04;99604.60;;;5.17;59.01
21086;BME280;72320;50.082;20.000;2024-02-14T00:54:32;99601.08;;;5.16;59.27
21086;BME280;72320;50.082;20.000;2024-02-14T00:56:57;99603.41;;;5.15;59.55
21086;BME280;72320;50.082;20.000;2024-02-14T00:59:23;99599.80;;;5.11;59.77
21086;BME280;72320;50.082;20.000;2024-02-14T01:01:50;99599.48;;;5.11;59.99
21086;BME280;72320;50.082;20.000;2024-02-14T01:04:17;99597.33;;;5.08;60.07
21086;BME280;72320;50.082;20.000;2024-02-14T01:06:43;99599.43;;;5.06;60.31
21086;BME280;72320;50.082;20.000;2024-02-14T01:09:11;99601.54;;;5.05;60.22
21086;BME280;72320;50.082;20.000;2024-02-14T01:11:37;99602.45;;;5.05;60.53
21086;BME280;72320;50.082;20.000;2024-02-14T01:14:04;99603.45;;;5.08;60.73
21086;BME280;72320;50.082;20.000;2024-02-14T01:16:29;99601.45;;;5.08;60.76
21086;BME280;72320;50.082;20.000;2024-02-14T01:18:55;99602.15;;;5.07;60.89
21086;BME280;72320;50.082;20.000;2024-02-14T01:21:22;99597.70;;;5.05;60.98
21086;BME280;72320;50.082;20.000;2024-02-14T01:23:49;99601.63;;;5.03;61.12
21086;BME280;72320;50.082;20.000;2024-02-14T01:26:17;99599.59;;;4.96;61.12
21086;BME280;72320;50.082;20.000;2024-02-14T01:28:43;99602.48;;;4.94;61.32
21086;BME280;72320;50.082;20.000;2024-02-14T01:31:10;99605.24;;;4.94;61.57
21086;BME280;72320;50.082;20.000;2024-02-14T01:33:41;99609.06;;;4.89;61.57
21086;BME280;72320;50.082;20.000;2024-02-14T01:36:09;99603.98;;;4.86;61.78
21086;BME280;72320;50.082;20.000;2024-02-14T01:38:35;99605.83;;;4.84;61.89
21086;BME280;72320;50.082;20.000;2024-02-14T01:41:03;99607.52;;;4.86;62.01
21086;BME280;72320;50.082;20.000;2024-02-14T01:43:30;99606.70;;;4.87;62.17
21086;BME280;72320;50.082;20.000;2024-02-14T01:46:06;99603.38;;;4.90;62.30
21086;BME280;72320;50.082;20.000;2024-02-14T01:48:34;99602.80;;;4.92;62.32
21086;BME280;72320;50.082;20.000;2024-02-14T01:51:02;99602.23;;;4.95;62.28
21086;BME280;72320;50.082;20.000;2024-02-14T01:53:31;99605.06;;;4.99;62.33
21086;BME280;72320;50.082;20.000;2024-02-14T01:55:59;99598.17;;;5.03;62.29
21086;BME280;72320;50.082;20.000;2024-02-14T01:58:28;99603.15;;;5.03;62.31
21086;BME280;72320;50.082;20.000;2024-02-14T02:00:55;99602.77;;;5.02;62.29
21086;BME280;72320;50.082;20.000;2024-02-14T02:03:24;99599.80;;;5.02;62.37
21086;BME280;72320;50.082;20.000;2024-02-14T02:05:52;99597.60;;;4.98;62.40
21086;BME280;72320;50.082;20.000;2024-02-14T02:08:22;99598.45;;;4.89;62.40
21086;BME280;72320;50.082;20.000;2024-02-14T02:10:48;99595.36;;;4.81;62.54
21086;BME280;72320;50.082;20.000;2024-02-14T02:13:17;99597.33;;;4.77;62.57
21086;BME280;72320;50.082;20.000;2024-02-14T02:15:45;99598.88;;;4.68;62.74
21086;BME280;72320;50.082;20.000;2024-02-14T02:18:12;99599.46;;;4.55;62.97
21086;BME280;72320;50.082;20.000;2024-02-14T02:20:38;99598.96;;;4.47;63.12
21086;BME280;72320;50.082;20.000;2024-02-14T02:23:04;99597.89;;;4.32;63.37
21086;BME280;72320;50.082;20.000;2024-02-14T02:25:30;99596.69;;;4.20;63.74
21086;BME280;72320;50.082;20.000;2024-02-14T02:27:56;99594.98;;;4.23;63.97
21086;BME280;72320;50.082;20.000;2024-02-14T02:30:25;99596.78;;;4.25;64.05
21086;BME280;72320;50.082;20.000;2024-02-14T02:32:54;99597.54;;;4.24;64.14
21086;BME280;72320;50.082;20.000;2024-02-14T02:35:23;99593.14;;;4.17;64.18
21086;BME280;72320;50.082;20.000;2024-02-14T02:37:49;99595.96;;;4.18;64.30
21086;BME280;72320;50.082;20.000;2024-02-14T02:40:17;99595.45;;;4.15;64.42
21086;BME280;72320;50.082;20.000;2024-02-14T02:42:43;99590.81;;;4.16;64.39
21086;BME280;72320;50.082;20.000;2024-02-14T02:45:11;99599.18;;;4.17;64.55
21086;BME280;72320;50.082;20.000;2024-02-14T02:47:38;99604.96;;;4.16;64.50
21086;BME280;72320;50.082;20.000;2024-02-14T02:50:06;99603.54;;;4.14;64.62
21086;BME280;72320;50.082;20.000;2024-02-14T02:52:34;99601.09;;;4.14;64.54
21086;BME280;72320;50.082;20.000;2024-02-14T02:55:02;99605.17;;;4.15;64.68
21086;BME280;72320;50.082;20.000;2024-02-14T02:57:30;99602.61;;;4.19;64.71
21086;BME280;72320;50.082;20.000;2024-02-14T02:59:58;99604.75;;;4.21;64.68
21086;BME280;72320;50.082;20.000;2024-02-14T03:02:23;99609.56;;;4.22;64.70
21086;BME280;72320;50.082;20.000;2024-02-14T03:04:51;99608.45;;;4.25;64.83
21086;BME280;72320;50.082;20.000;2024-02-14T03:07:19;99611.29;;;4.26;64.82
21086;BME280;72320;50.082;20.000;2024-02-14T03:09:46;99615.01;;;4.27;64.84
21086;BME280;72320;50.082;20.000;2024-02-14T03:12:12;99616.07;;;4.29;64.98
21086;BME280;72320;50.082;20.000;2024-02-14T03:14:41;99619.29;;;4.32;65.01
21086;BME280;72320;50.082;20.000;2024-02-14T03:17:09;99615.86;;;4.35;64.96
21086;BME280;72320;50.082;20.000;2024-02-14T03:19:37;99622.53;;;4.38;64.99
21086;BME280;72320;50.082;20.000;2024-02-14T03:22:05;99626.88;;;4.39;64.91
21086;BME280;72320;50.082;20.000;2024-02-14T03:24:34;99626.07;;;4.45;64.89
21086;BME280;72320;50.082;20.000;2024-02-14T03:27:03;99627.41;;;4.50;64.92
21086;BME280;72320;50.082;20.000;2024-02-14T03:29:31;99624.42;;;4.53;64.81
21086;BME280;72320;50.082;20.000;2024-02-14T03:31:59;99628.38;;;4.59;64.74
21086;BME280;72320;50.082;20.000;2024-02-14T03:34:29;99626.69;;;4.58;64.71
21086;BME280;72320;50.082;20.000;2024-02-14T03:37:00;99632.39;;;4.55;64.63
21086;BME280;72320;50.082;20.000;2024-02-14T03:39:31;99627.54;;;4.56;64.55
21086;BME280;72320;50.082;20.000;2024-02-14T03:41:57;99633.66;;;4.59;64.63
21086;BME280;72320;50.082;20.000;2024-02-14T03:44:26;99635.31;;;4.62;64.68
21086;BME280;72320;50.082;20.000;2024-02-14T03:46:53;99637.34;;;4.60;64.60
21086;BME280;72320;50.082;20.000;2024-02-14T03:49:20;99637.69;;;4.61;64.60
21086;BME280;72320;50.082;20.000;2024-02-14T03:51:47;99636.88;;;4.61;64.47
21086;BME280;72320;50.082;20.000;2024-02-14T03:54:14;99639.87;;;4.63;64.65
21086;BME280;72320;50.082;20.000;2024-02-14T03:56:41;99642.95;;;4.64;64.58
21086;BME280;72320;50.082;20.000;2024-02-14T03:59:07;99641.46;;;4.61;64.60
21086;BME280;72320;50.082;20.000;2024-02-14T04:01:33;99640.20;;;4.59;64.65
21086;BME280;72320;50.082;20.000;2024-02-14T04:04:00;99635.56;;;4.60;64.66
21086;BME280;72320;50.082;20.000;2024-02-14T04:06:27;99637.73;;;4.60;64.65
21086;BME280;72320;50.082;20.000;2024-02-14T04:08:54;99637.86;;;4.57;64.65
21086;BME280;72320;50.082;20.000;2024-02-14T04:11:20;99640.66;;;4.55;64.72
21086;BME280;72320;50.082;20.000;2024-02-14T04:13:47;99644.33;;;4.54;64.69
21086;BME280;72320;50.082;20.000;2024-02-14T04:16:14;99646.95;;;4.51;64.75
21086;BME280;72320;50.082;20.000;2024-02-14T04:18:47;99641.89;;;4.44;64.71
21086;BME280;72320;50.082;20.000;2024-02-14T04:21:14;99637.02;;;4.37;64.88
21086;BME280;72320;50.082;20.000;2024-02-14T04:23:40;99642.84;;;4.31;64.98
21086;BME280;72320;50.082;20.000;2024-02-14T04:26:06;99642.41;;;4.27;65.07
21086;BME280;72320;50.082;20.000;2024-02-14T04:28:38;99647.44;;;4.27;65.27
21086;BME280;72320;50.082;20.000;2024-02-14T04:31:04;99653.71;;;4.28;65.29
21086;BME280;72320;50.082;20.000;2024-02-14T04:33:32;99652.20;;;4.29;65.29
21086;BME280;72320;50.082;20.000;2024-02-14T04:35:59;99653.38;;;4.27;65.31
21086;BME280;72320;50.082;20.000;2024-02-14T04:38:26;99657.55;;;4.27;65.43
21086;BME280;72320;50.082;20.000;2024-02-14T04:40:52;99653.29;;;4.28;65.51
21086;BME280;72320;50.082;20.000;2024-02-14T04:43:18;99651.23;;;4.27;65.50
21086;BME280;72320;50.082;20.000;2024-02-14T04:45:44;99656.15;;;4.23;65.48
21086;BME280;72320;50.082;20.000;2024-02-14T04:48:11;99652.20;;;4.13;65.54
21086;BME280;72320;50.082;20.000;2024-02-14T04:50:38;99652.27;;;4.05;65.71
21086;BME280;72320;50.082;20.000;2024-02-14T04:53:04;99649.11;;;3.99;65.79
21086;BME280;72320;50.082;20.000;2024-02-14T04:55:31;99651.98;;;3.95;65.78
21086;BME280;72320;50.082;20.000;2024-02-14T04:57:59;99650.19;;;3.86;66.08
21086;BME280;72320;50.082;20.000;2024-02-14T05:00:26;99649.55;;;3.77;66.18
21086;BME280;72320;50.082;20.000;2024-02-14T05:02:53;99649.14;;;3.71;66.41
21086;BME280;72320;50.082;20.000;2024-02-14T05:05:20;99651.66;;;3.65;66.51
21086;BME280;72320;50.082;20.000;2024-02-14T05:07:46;99651.89;;;3.60;66.70
21086;BME280;72320;50.082;20.000;2024-02-14T05:10:13;99654.54;;;3.55;66.82
21086;BME280;72320;50.082;20.000;2024-02-14T05:12:40;99659.61;;;3.51;66.91
21086;BME280;72320;50.082;20.000;2024-02-14T05:15:07;99660.71;;;3.50;67.03
21086;BME280;72320;50.082;20.000;2024-02-14T05:17:33;99662.86;;;3.49;67.26
21086;BME280;72320;50.082;20.000;2024-02-14T05:20:00;99665.10;;;3.47;67.38
21086;BME280;72320;50.082;20.000;2024-02-14T05:22:26;99670.35;;;3.44;67.36
21086;BME280;72320;50.082;20.000;2024-02-14T05:24:53;99667.48;;;3.48;67.67
21086;BME280;72320;50.082;20.000;2024-02-14T05:27:21;99670.19;;;3.51;67.65
21086;BME280;72320;50.082;20.000;2024-02-14T05:29:48;99670.26;;;3.56;67.73
21086;BME280;72320;50.082;20.000;2024-02-14T05:32:15;99663.98;;;3.56;67.69
21086;BME280;72320;50.082;20.000;2024-02-14T05:34:41;99667.48;;;3.55;67.80
21086;BME280;72320;50.082;20.000;2024-02-14T05:37:07;99668.79;;;3.56;67.79
21086;BME280;72320;50.082;20.000;2024-02-14T05:39:34;99667.80;;;3.58;67.85
21086;BME280;72320;50.082;20.000;2024-02-14T05:42:01;99671.60;;;3.59;67.89
21086;BME280;72320;50.082;20.000;2024-02-14T05:44:28;99676.68;;;3.60;67.94
21086;BME280;72320;50.082;20.000;2024-02-14T05:46:55;99675.29;;;3.61;67.88
21086;BME280;72320;50.082;20.000;2024-02-14T05:49:22;99678.30;;;3.61;67.92
21086;BME280;72320;50.082;20.000;2024-02-14T05:51:48;99681.91;;;3.63;67.86
21086;BME280;72320;50.082;20.000;2024-02-14T05:54:14;99684.97;;;3.62;67.96
21086;BME280;72320;50.082;20.000;2024-02-14T05:56:41;99683.25;;;3.55;67.96
21086;BME280;72320;50.082;20.000;2024-02-14T05:59:08;99686.14;;;3.49;67.99
21086;BME280;72320;50.082;20.000;2024-02-14T06:01:36;99686.94;;;3.52;68.03
21086;BME280;72320;50.082;20.000;2024-02-14T06:04:04;99684.90;;;3.57;68.00
21086;BME280;72320;50.082;20.000;2024-02-14T06:06:30;99690.13;;;3.60;68.08
21086;BME280;72320;50.082;20.000;2024-02-14T06:08:56;99692.05;;;3.65;68.08
21086;BME280;72320;50.082;20.000;2024-02-14T06:11:23;99691.63;;;3.71;68.07
21086;BME280;72320;50.082;20.000;2024-02-14T06:13:49;99690.95;;;3.76;68.11
21086;BME280;72320;50.082;20.000;2024-02-14T06:16:15;99692.34;;;3.80;68.01
21086;BME280;72320;50.082;20.000;2024-02-14T06:18:42;99693.42;;;3.80;67.93
21086;BME280;72320;50.082;20.000;2024-02-14T06:21:09;99696.44;;;3.76;67.77
21086;BME280;72320;50.082;20.000;2024-02-14T06:23:36;99695.62;;;3.71;67.84
21086;BME280;72320;50.082;20.000;2024-02-14T06:26:08;99696.13;;;3.64;67.83
21086;BME280;72320;50.082;20.000;2024-02-14T06:28:35;99693.14;;;3.60;67.85
21086;BME280;72320;50.082;20.000;2024-02-14T06:31:01;99691.41;;;3.52;67.87
21086;BME280;72320;50.082;20.000;2024-02-14T06:33:27;99698.95;;;3.48;67.99
21086;BME280;72320;50.082;20.000;2024-02-14T06:35:53;99701.59;;;3.44;68.02
21086;BME280;72320;50.082;20.000;2024-02-14T06:38:20;99699.95;;;3.43;68.12
21086;BME280;72320;50.082;20.000;2024-02-14T06:40:45;99705.60;;;3.41;68.24
21086;BME280;72320;50.082;20.000;2024-02-14T06:43:12;99706.55;;;3.41;68.34
21086;BME280;72320;50.082;20.000;2024-02-14T06:45:38;99703.33;;;3.41;68.36
21086;BME280;72320;50.082;20.000;2024-02-14T06:48:07;99707.12;;;3.42;68.45
21086;BME280;72320;50.082;20.000;2024-02-14T06:50:37;99706.34;;;3.40;68.45
21086;BME280;72320;50.082;20.000;2024-02-14T06:53:08;99705.50;;;3.35;68.40
21086;BME280;72320;50.082;20.000;2024-02-14T06:55:37;99706.20;;;3.24;68.52
21086;BME280;72320;50.082;20.000;2024-02-14T06:58:08;99708.34;;;3.14;68.69
21086;BME280;72320;50.082;20.000;2024-02-14T07:00:39;99703.62;;;3.09;68.74
21086;BME280;72320;50.082;20.000;2024-02-14T07:03:16;99710.65;;;3.06;68.89
21086;BME280;72320;50.082;20.000;2024-02-14T07:05:46;99710.98;;;3.04;69.05
21086;BME280;72320;50.082;20.000;2024-02-14T07:08:17;99710.85;;;2.99;69.11
21086;BME280;72320;50.082;20.000;2024-02-14T07:10:48;99714.21;;;2.97;69.40
21086;BME280;72320;50.082;20.000;2024-02-14T07:13:46;99711.27;;;2.99;69.48
21086;BME280;72320;50.082;20.000;2024-02-14T07:16:16;99714.39;;;3.04;69.69
21086;BME280;72320;50.082;20.000;2024-02-14T07:18:50;99715.91;;;3.15;69.70
21086;BME280;72320;50.082;20.000;2024-02-14T07:21:26;99720.85;;;3.30;69.77
21086;BME280;72320;50.082;20.000;2024-02-14T07:23:58;99719.72;;;3.41;69.67
21086;BME280;72320;50.082;20.000;2024-02-14T07:27:03;99719.79;;;3.52;69.63
21086;BME280;72320;50.082;20.000;2024-02-14T07:29:31;99720.02;;;3.63;69.55
21086;BME280;72320;50.082;20.000;2024-02-14T07:32:02;99719.09;;;3.74;69.46
21086;BME280;72320;50.082;20.000;2024-02-14T07:34:31;99718.91;;;3.88;69.38
21086;BME280;72320;50.082;20.000;2024-02-14T07:36:58;99717.39;;;4.03;69.13
21086;BME280;72320;50.082;20.000;2024-02-14T07:39:25;99714.09;;;4.16;68.95
21086;BME280;72320;50.082;20.000;2024-02-14T07:41:52;99716.56;;;4.24;68.64
21086;BME280;72320;50.082;20.000;2024-02-14T07:44:26;99716.03;;;4.33;68.49
21086;BME280;72320;50.082;20.000;2024-02-14T07:46:53;99717.14;;;4.44;68.34
21086;BME280;72320;50.082;20.000;2024-02-14T07:49:19;99718.67;;;4.57;68.04
21086;BME280;72320;50.082;20.000;2024-02-14T07:51:45;99714.95;;;4.72;67.82
21086;BME280;72320;50.082;20.000;2024-02-14T07:54:15;99714.70;;;4.85;67.55
21086;BME280;72320;50.082;20.000;2024-02-14T07:56:43;99713.13;;;4.94;67.26
21086;BME280;72320;50.082;20.000;2024-02-14T07:59:09;99711.88;;;4.95;66.94
21086;BME280;72320;50.082;20.000;2024-02-14T08:01:36;99717.20;;;5.06;66.54
21086;BME280;72320;50.082;20.000;2024-02-14T08:04:03;99719.07;;;5.13;66.14
21086;BME280;72320;50.082;20.000;2024-02-14T08:06:30;99724.18;;;5.17;65.85
21086;BME280;72320;50.082;20.000;2024-02-14T08:08:57;99719.80;;;5.21;65.46
21086;BME280;72320;50.082;20.000;2024-02-14T08:11:27;99718.91;;;5.25;65.08
21086;BME280;72320;50.082;20.000;2024-02-14T08:13:56;99716.56;;;5.35;64.91
21086;BME280;72320;50.082;20.000;2024-02-14T08:16:22;99715.06;;;5.46;64.47
21086;BME280;72320;50.082;20.000;2024-02-14T08:18:48;99713.65;;;5.61;64.11
21086;BME280;72320;50.082;20.000;2024-02-14T08:21:16;99714.59;;;5.72;63.86
21086;BME280;72320;50.082;20.000;2024-02-14T08:23:42;99716.58;;;5.79;63.58
21086;BME280;72320;50.082;20.000;2024-02-14T08:26:10;99712.21;;;5.92;63.28
21086;BME280;72320;50.082;20.000;2024-02-14T08:28:37;99708.23;;;6.02;62.89
21086;BME280;72320;50.082;20.000;2024-02-14T08:31:09;99704.23;;;6.15;62.60
21086;BME280;72320;50.082;20.000;2024-02-14T08:33:36;99705.95;;;6.24;62.29
21086;BME280;72320;50.082;20.000;2024-02-14T08:36:05;99707.69;;;6.25;61.74
21086;BME280;72320;50.082;20.000;2024-02-14T08:38:39;99706.16;;;6.35;61.30
21086;BME280;72320;50.082;20.000;2024-02-14T08:41:10;99709.66;;;6.45;61.06
21086;BME280;72320;50.082;20.000;2024-02-14T08:43:37;99707.25;;;6.52;60.89
21086;BME280;72320;50.082;20.000;2024-02-14T08:46:11;99708.56;;;6.61;60.59
21086;BME280;72320;50.082;20.000;2024-02-14T08:48:37;99707.83;;;6.73;60.14
21086;BME280;72320;50.082;20.000;2024-02-14T08:51:12;99713.42;;;6.77;59.58
21086;BME280;72320;50.082;20.000;2024-02-14T08:53:39;99714.53;;;6.83;59.42
21086;BME280;72320;50.082;20.000;2024-02-14T08:56:05;99718.59;;;6.79;58.76
21086;BME280;72320;50.082;20.000;2024-02-14T08:58:32;99717.14;;;6.87;58.14
21086;BME280;72320;50.082;20.000;2024-02-14T09:00:58;99717.05;;;7.01;58.02
21086;BME280;72320;50.082;20.000;2024-02-14T09:03:24;99716.15;;;7.16;57.63
21086;BME280;72320;50.082;20.000;2024-02-14T09:05:50;99714.36;;;7.27;56.98
21086;BME280;72320;50.082;20.000;2024-02-14T09:08:17;99710.56;;;7.26;56.56
21086;BME280;72320;50.082;20.000;2024-02-14T09:10:42;99708.77;;;7.31;56.17
21086;BME280;72320;50.082;20.000;2024-02-14T09:13:08;99706.59;;;7.43;55.86
21086;BME280;72320;50.082;20.000;2024-02-14T09:15:35;99705.66;;;7.56;55.36
21086;BME280;72320;50.082;20.000;2024-02-14T09:18:02;99698.47;;;7.68;54.93
21086;BME280;72320;50.082;20.000;2024-02-14T09:20:30;99694.81;;;7.71;54.06
21086;BME280;72320;50.082;20.000;2024-02-14T09:22:56;99692.70;;;7.70;52.63
21086;BME280;72320;50.082;20.000;2024-02-14T09:25:24;99692.80;;;7.77;51.98
21086;BME280;72320;50.082;20.000;2024-02-14T09:27:54;99691.10;;;7.84;51.44
21086;BME280;72320;50.082;20.000;2024-02-14T09:30:22;99694.14;;;7.79;50.35
21086;BME280;72320;50.082;20.000;2024-02-14T09:32:48;99693.11;;;7.82;49.20
21086;BME280;72320;50.082;20.000;2024-02-14T09:35:16;99691.34;;;7.96;48.74
21086;BME280;72320;50.082;20.000;2024-02-14T09:38:00;99697.23;;;8.09;48.44
21086;BME280;72320;50.082;20.000;2024-02-14T09:40:27;99695.39;;;8.18;48.31
21086;BME280;72320;50.082;20.000;2024-02-14T09:43:40;99697.99;;;8.32;47.88
21086;BME280;72320;50.082;20.000;2024-02-14T09:46:23;99702.40;;;8.51;47.09
21086;BME280;72320;50.082;20.000;2024-02-14T09:48:57;99703.02;;;8.68;46.60
21086;BME280;72320;50.082;20.000;2024-02-14T09:52:05;99700.34;;;8.72;46.22
21086;BME280;72320;50.082;20.000;2024-02-14T09:54:32;99700.68;;;8.78;46.11
21086;BME280;72320;50.082;20.000;2024-02-14T09:57:02;99699.85;;;9.10;45.89
21086;BME280;72320;50.082;20.000;2024-02-14T09:59:29;99701.00;;;10.26;45.10
21086;BME280;72320;50.082;20.000;2024-02-14T10:01:57;99698.62;;;11.17;43.39
21086;BME280;72320;50.082;20.000;2024-02-14T10:04:24;99691.77;;;11.22;42.33
21086;BME280;72320;50.082;20.000;2024-02-14T10:06:51;99691.30;;;10.92;41.61
21086;BME280;72320;50.082;20.000;2024-02-14T10:09:30;99687.84;;;10.52;41.44
21086;BME280;72320;50.082;20.000;2024-02-14T10:12:20;99693.23;;;10.19;41.55
21086;BME280;72320;50.082;20.000;2024-02-14T10:14:46;99687.77;;;9.96;41.58
21086;BME280;72320;50.082;20.000;2024-02-14T10:18:07;99690.79;;;9.80;41.29
21086;BME280;72320;50.082;20.000;2024-02-14T10:20:40;99688.92;;;9.64;41.36
21086;BME280;72320;50.082;20.000;2024-02-14T10:23:24;99687.77;;;9.66;41.66
21086;BME280;72320;50.082;20.000;2024-02-14T10:25:52;99680.77;;;9.71;41.54
21086;BME280;72320;50.082;20.000;2024-02-14T10:28:28;99680.84;;;9.71;41.57
21086;BME280;72320;50.082;20.000;2024-02-14T10:30:55;99681.63;;;9.69;41.61
21086;BME280;72320;50.082;20.000;2024-02-14T10:33:23;99673.73;;;9.69;41.52
21086;BME280;72320;50.082;20.000;2024-02-14T10:35:55;99667.97;;;9.63;41.52
21086;BME280;72320;50.082;20.000;2024-02-14T10:38:24;99669.33;;;9.64;41.50
21086;BME280;72320;50.082;20.000;2024-02-14T10:40:51;99668.27;;;9.65;41.37
21086;BME280;72320;50.082;20.000;2024-02-14T10:43:19;99664.05;;;9.63;41.17
21086;BME280;72320;50.082;20.000;2024-02-14T10:45:48;99665.66;;;9.69;41.16
21086;BME280;72320;50.082;20.000;2024-02-14T10:48:17;99667.52;;;9.84;41.15
21086;BME280;72320;50.082;20.000;2024-02-14T10:50:46;99668.75;;;10.00;40.95
21086;BME280;72320;50.082;20.000;2024-02-14T10:53:14;99670.61;;;10.10;40.93
21086;BME280;72320;50.082;20.000;2024-02-14T10:55:49;99668.34;;;10.16;40.91
21086;BME280;72320;50.082;20.000;2024-02-14T10:58:18;99666.52;;;10.09;40.66
21086;BME280;72320;50.082;20.000;2024-02-14T11:00:46;99662.19;;;9.93;40.52
21086;BME280;72320;50.082;20.000;2024-02-14T11:03:13;99659.81;;;9.81;40.80
21086;BME280;72320;50.082;20.000;2024-02-14T11:05:47;99661.42;;;9.78;40.85
21086;BME280;72320;50.082;20.000;2024-02-14T11:08:19;99657.89;;;9.88;40.84
21086;BME280;72320;50.082;20.000;2024-02-14T11:10:55;99653.84;;;9.85;40.67
21086;BME280;72320;50.082;20.000;2024-02-14T11:13:27;99655.30;;;9.79;40.64
21086;BME280;72320;50.082;20.000;2024-02-14T11:15:54;99656.14;;;9.78;40.67
21086;BME280;72320;50.082;20.000;2024-02-14T11:18:28;99654.55;;;9.79;40.68
21086;BME280;72320;50.082;20.000;2024-02-14T11:21:04;99645.48;;;9.91;40.63
21086;BME280;72320;50.082;20.000;2024-02-14T11:23:31;99642.52;;;10.01;40.62
21086;BME280;72320;50.082;20.000;2024-02-14T11:26:03;99634.90;;;10.13;40.56
21086;BME280;72320;50.082;20.000;2024-02-14T11:28:30;99634.94;;;10.19;40.22
21086;BME280;72320;50.082;20.000;2024-02-14T11:31:02;99627.96;;;10.28;40.44
21086;BME280;72320;50.082;20.000;2024-02-14T11:33:29;99622.91;;;10.35;40.15
21086;BME280;72320;50.082;20.000;2024-02-14T11:35:55;99622.02;;;10.44;40.09
21086;BME280;72320;50.082;20.000;2024-02-14T11:38:25;99621.15;;;10.43;39.87
21086;BME280;72320;50.082;20.000;2024-02-14T11:40:54;99619.03;;;10.47;39.80
21086;BME280;72320;50.082;20.000;2024-02-14T11:43:22;99618.77;;;10.47;39.45
21086;BME280;72320;50.082;20.000;2024-02-14T11:45:50;99618.78;;;10.57;39.47
21086;BME280;72320;50.082;20.000;2024-02-14T11:48:18;99611.36;;;10.64;39.32
21086;BME280;72320;50.082;20.000;2024-02-14T11:50:51;99610.15;;;10.75;39.26
21086;BME280;72320;50.082;20.000;2024-02-14T11:53:18;99607.33;;;10.85;39.11
21086;BME280;72320;50.082;20.000;2024-02-14T11:55:47;99604.91;;;10.89;38.88
21086;BME280;72320;50.082;20.000;2024-02-14T11:58:18;99607.45;;;10.94;38.99
21086;BME280;72320;50.082;20.000;2024-02-14T12:00:46;99607.80;;;10.85;38.79
21086;BME280;72320;50.082;20.000;2024-02-14T12:03:18;99605.23;;;10.80;38.90
21086;BME280;72320;50.082;20.000;2024-02-14T12:05:49;99605.48;;;10.74;38.78
21086;BME280;72320;50.082;20.000;2024-02-14T12:08:21;99606.23;;;10.67;38.92
21086;BME280;72320;50.082;20.000;2024-02-14T12:10:49;99608.73;;;10.61;38.90
21086;BME280;72320;50.082;20.000;2024-02-14T12:13:26;99606.34;;;10.50;38.99
21086;BME280;72320;50.082;20.000;2024-02-14T12:15:55;99607.85;;;10.39;39.00
21086;BME280;72320;50.082;20.000;2024-02-14T12:18:21;99603.36;;;10.36;38.98
21086;BME280;72320;50.082;20.000;2024-02-14T12:20:50;99600.93;;;10.30;38.68
21086;BME280;72320;50.082;20.000;2024-02-14T12:23:19;99598.54;;;10.31;38.70
21086;BME280;72320;50.082;20.000;2024-02-14T12:25:50;99592.92;;;10.33;38.78
21086;BME280;72320;50.082;20.000;2024-02-14T12:28:19;99591.50;;;10.34;38.55
21086;BME280;72320;50.082;20.000;2024-02-14T12:30:53;99594.88;;;10.33;38.47
21086;BME280;72320;50.082;20.000;2024-02-14T12:33:22;99588.77;;;10.24;38.32
21086;BME280;72320;50.082;20.000;2024-02-14T12:35:51;99590.11;;;10.28;38.00
21086;BME280;72320;50.082;20.000;2024-02-14T12:38:20;99592.77;;;10.37;37.83
21086;BME280;72320;50.082;20.000;2024-02-14T12:40:46;99588.60;;;10.46;37.87
21086;BME280;72320;50.082;20.000;2024-02-14T12:43:15;99583.52;;;10.85;37.56
21086;BME280;72320;50.082;20.000;2024-02-14T12:45:44;99580.17;;;11.33;37.06
21086;BME280;72320;50.082;20.000;2024-02-14T12:48:13;99584.46;;;11.22;36.70
21086;BME280;72320;50.082;20.000;2024-02-14T12:50:41;99584.99;;;10.98;36.91
21086;BME280;72320;50.082;20.000;2024-02-14T12:53:16;99582.84;;;10.61;36.95
21086;BME280;72320;50.082;20.000;2024-02-14T12:55:42;99580.86;;;10.34;36.93
21086;BME280;72320;50.082;20.000;2024-02-14T12:58:08;99583.33;;;10.33;37.10
21086;BME280;72320;50.082;20.000;2024-02-14T13:00:36;99582.00;;;10.42;37.12
21086;BME280;72320;50.082;20.000;2024-02-14T13:03:04;99586.02;;;10.43;37.08
21086;BME280;72320;50.082;20.000;2024-02-14T13:05:30;99584.07;;;10.45;37.19